Hovedside
METAR-TAF:

METAR-TAF

Lufthavner :

Jönköping lufthavn

Jönköping, Sverige

breddegrad: 57-46N, lengdegrad: 014-05E, høyde over havet: 226 m

Gjeldene værobservasjon

Denne rapporten ble laget for 26 minutter siden, klokken 18:20 UTC
Vind 8 kt fra Nordøst
Temperatur 1°C
Luftfuktighet 100%
Trykk 1034 hPa
Sikt: 9000 m
Spredte skyer i en høyde av 700 ft
Brutte skyer i en høyde av 1000 ft
Brutte skyer i en høyde av 1400 ft
lett regn

METAR: ESGJ 191820Z 05008KT 9000 -RA SCT007 BKN010 BKN014 01/01 Q1034 REDZ

Tid: 19:46 (18:46 UTC)

Varsel

Denne rapporten ble laget for 1 time og 16 minutter siden, klokken 17:30 UTC
Varsel gyldig fra 19. klokken 18 UTC til 20. klokken 02 UTC
Vind 8 kt fra Øst-nordøst
Sikt: 8000 m
Brutte skyer i en høyde av 600 ft
lett regn, snø
Midlertidig
fra 19. klokken 18 UTC til 20. klokken 02 UTC
Spredte skyer i en høyde av 600 ft
Overskyet i en høyde av 1500 ft

TAF: ESGJ 191730Z 1918/2002 06008KT 8000 -RASN BKN006 TEMPO 1918/2002 SCT006 OVC015

Værobservasjoner og værvarsel for over 4000 flyplasser (METAR- og TAF-rapporter).

Tilgjengelige stasjoner er representert av de røde og gule prikkene på kartet.

Hold musepekeren over prikken for å se navnet på stasjonen.

Klikk så for å se værobservasjoner og -varsler.

For å forandre kartet kan du klikke på den grønne knappen med svart kryss for å zoome inn, på den grønne knappen med strek for å zoome ut, eller på de grønne pilene for å se tilstøtende kart.


METAR-TAF: